createdAt,value
2022-10-23T00:02:30.333Z,98.79
2022-10-23T00:07:32.476Z,98.86
2022-10-23T00:12:34.723Z,97.83
2022-10-23T00:17:36.831Z,99.28
2022-10-23T00:22:39.459Z,99.38
2022-10-23T00:27:41.814Z,98.02
2022-10-23T00:32:44.056Z,97.93
2022-10-23T00:37:46.210Z,98.00
2022-10-23T00:42:49.829Z,98.42
2022-10-23T00:47:52.602Z,98.30
2022-10-23T00:52:56.333Z,98.57
2022-10-23T00:57:58.671Z,98.65
2022-10-23T01:03:00.934Z,98.95
2022-10-23T01:14:50.938Z,99.58
2022-10-23T01:20:05.126Z,99.32
2022-10-23T01:25:48.534Z,99.00
2022-10-23T01:30:51.074Z,99.35
2022-10-23T01:36:00.019Z,99.84
2022-10-23T01:41:11.757Z,98.82
2022-10-23T01:46:17.546Z,99.68
2022-10-23T01:51:21.474Z,99.76
2022-10-23T01:56:27.910Z,99.68
2022-10-23T02:01:31.458Z,99.00
2022-10-23T02:06:33.588Z,98.75
2022-10-23T02:11:45.076Z,99.86
2022-10-23T02:16:51.863Z,99.59
2022-10-23T02:21:59.004Z,99.07
2022-10-23T02:27:10.648Z,99.38
2022-10-23T02:32:13.610Z,99.40
2022-10-23T02:37:16.220Z,98.74
2022-10-23T02:42:30.768Z,98.64
2022-10-23T02:47:49.993Z,98.06
2022-10-23T02:52:57.853Z,98.20
2022-10-23T02:58:20.477Z,97.35
2022-10-23T03:03:32.523Z,96.30
2022-10-23T03:08:55.704Z,97.10
2022-10-23T03:14:00.353Z,97.48
2022-10-23T03:19:02.606Z,98.03
2022-10-23T03:24:07.147Z,96.93
2022-10-23T03:29:14.203Z,98.39
2022-10-23T03:34:22.003Z,97.06
2022-10-23T03:39:23.956Z,98.34
2022-10-23T03:44:26.197Z,98.94
2022-10-23T03:49:28.153Z,99.53
2022-10-23T03:54:36.786Z,98.72
2022-10-23T03:59:38.745Z,98.50
2022-10-23T04:04:41.920Z,98.31
2022-10-23T04:09:44.118Z,98.83
2022-10-23T04:14:50.852Z,98.14
2022-10-23T04:19:53.123Z,97.53
2022-10-23T04:24:55.227Z,97.59
2022-10-23T04:29:59.097Z,98.25
2022-10-23T04:35:01.830Z,98.06
2022-10-23T04:40:06.340Z,96.74
2022-10-23T04:45:11.543Z,94.01
2022-10-23T04:50:16.344Z,92.49
2022-10-23T04:55:37.030Z,92.94
2022-10-23T05:00:53.515Z,94.22
2022-10-23T05:05:59.525Z,92.91
2022-10-23T05:11:15.892Z,91.90
2022-10-23T05:16:53.511Z,91.93
2022-10-23T05:21:56.385Z,91.98
2022-10-23T05:27:07.352Z,90.50
2022-10-23T05:32:11.318Z,89.46
2022-10-23T05:37:14.660Z,88.93
2022-10-23T05:42:17.692Z,91.32
2022-10-23T05:47:20.676Z,91.80
2022-10-23T05:52:51.734Z,89.92
2022-10-23T05:58:12.953Z,92.22
2022-10-23T06:03:34.172Z,91.05
2022-10-23T06:08:39.346Z,91.11
2022-10-23T06:13:45.444Z,91.12
2022-10-23T06:18:48.363Z,90.70
2022-10-23T06:23:51.596Z,91.56
2022-10-23T06:29:12.652Z,92.56
2022-10-23T06:34:17.246Z,92.73
2022-10-23T06:39:22.374Z,93.13
2022-10-23T06:44:40.925Z,92.85
2022-10-23T06:49:46.498Z,93.01
2022-10-23T06:54:48.569Z,92.04
2022-10-23T07:00:00.303Z,89.04
2022-10-23T07:05:02.891Z,88.07
2022-10-23T07:10:06.602Z,86.26
2022-10-23T07:15:20.105Z,87.26
2022-10-23T07:20:22.563Z,85.87
2022-10-23T07:25:27.049Z,83.90
2022-10-23T07:30:29.654Z,82.67
2022-10-23T07:35:36.983Z,82.20
2022-10-23T07:40:58.551Z,81.32
2022-10-23T07:46:01.912Z,81.60
2022-10-23T07:51:15.576Z,80.63
2022-10-23T07:56:30.403Z,80.79
2022-10-23T08:02:17.157Z,80.99
2022-10-23T08:07:20.074Z,79.97
2022-10-23T08:12:24.357Z,78.25
2022-10-23T08:17:28.323Z,79.18
2022-10-23T08:22:39.225Z,77.99
2022-10-23T08:27:41.811Z,77.24
2022-10-23T08:32:44.968Z,75.76
2022-10-23T08:37:48.790Z,75.75
2022-10-23T08:43:16.490Z,76.64
2022-10-23T08:48:42.399Z,75.29
2022-10-23T08:54:17.588Z,79.19
2022-10-23T08:59:33.159Z,80.84
2022-10-23T09:04:35.539Z,79.55
2022-10-23T09:09:52.932Z,79.50
2022-10-23T09:15:03.863Z,78.72
2022-10-23T09:20:23.154Z,79.41
2022-10-23T09:25:31.368Z,79.93
2022-10-23T09:30:33.552Z,80.49
2022-10-23T09:35:35.854Z,83.57
2022-10-23T09:40:41.740Z,85.01
2022-10-23T09:45:44.270Z,83.50
2022-10-23T09:50:57.546Z,81.16
2022-10-23T09:56:03.165Z,78.70
2022-10-23T10:01:05.761Z,76.97
2022-10-23T10:06:23.902Z,75.74
2022-10-23T10:11:35.242Z,82.07
2022-10-23T10:16:43.449Z,85.73
2022-10-23T10:22:08.921Z,88.72
2022-10-23T10:27:46.452Z,90.13
2022-10-23T10:33:15.705Z,88.26
2022-10-23T10:38:45.652Z,89.36
2022-10-23T10:44:02.458Z,87.83
2022-10-23T10:49:12.543Z,85.24
2022-10-23T10:54:48.019Z,86.50
2022-10-23T10:59:51.538Z,84.25
2022-10-23T11:05:03.044Z,85.02
2022-10-23T11:10:15.747Z,84.47
2022-10-23T11:15:41.563Z,83.86
2022-10-23T11:20:55.662Z,86.41
2022-10-23T11:26:44.794Z,85.28
2022-10-23T11:32:12.497Z,86.58
2022-10-23T11:37:21.020Z,83.83
2022-10-23T11:42:47.536Z,83.27
2022-10-23T11:47:57.884Z,83.95
2022-10-23T11:53:17.342Z,83.96
2022-10-23T11:58:32.213Z,84.76
2022-10-23T12:03:49.961Z,83.01
2022-10-23T12:08:55.618Z,84.52
2022-10-23T12:13:57.691Z,85.55
2022-10-23T12:19:17.267Z,87.02
2022-10-23T12:24:40.911Z,89.43
2022-10-23T12:30:00.773Z,88.66
2022-10-23T12:35:17.929Z,90.25
2022-10-23T12:40:19.808Z,86.84
2022-10-23T12:45:25.130Z,86.40
2022-10-23T12:50:29.209Z,87.95
2022-10-23T12:55:52.577Z,89.26
2022-10-23T13:00:57.581Z,88.10
2022-10-23T13:06:02.838Z,91.73
2022-10-23T13:11:05.585Z,88.32
2022-10-23T13:16:19.486Z,89.37
2022-10-23T13:21:23.871Z,90.40
2022-10-23T13:26:32.201Z,89.99
2022-10-23T13:31:34.433Z,90.69
2022-10-23T13:36:37.568Z,89.63
2022-10-23T13:41:42.541Z,91.10
2022-10-23T13:46:44.633Z,91.87
2022-10-23T13:51:50.834Z,92.20
2022-10-23T13:56:53.610Z,90.48
2022-10-23T14:01:55.665Z,90.26
2022-10-23T14:06:58.711Z,91.41
2022-10-23T14:12:00.721Z,90.14
2022-10-23T14:17:02.710Z,88.41
2022-10-23T14:22:04.646Z,88.99
2022-10-23T14:27:07.128Z,85.59
2022-10-23T14:32:09.288Z,88.35
2022-10-23T14:37:11.324Z,86.33
2022-10-23T14:42:13.993Z,84.14
2022-10-23T14:47:17.115Z,83.54
2022-10-23T14:52:19.292Z,85.42
2022-10-23T14:57:22.629Z,86.37
2022-10-23T15:02:24.590Z,81.03
2022-10-23T15:07:26.433Z,82.59
2022-10-23T15:12:28.398Z,83.09
2022-10-23T15:17:32.235Z,83.68
2022-10-23T15:22:34.137Z,82.06
2022-10-23T15:27:36.061Z,82.13
2022-10-23T15:32:38.064Z,84.66
2022-10-23T15:37:40.259Z,85.09
2022-10-23T15:42:42.715Z,83.12
2022-10-23T15:47:45.307Z,81.54
2022-10-23T15:52:47.822Z,83.51
2022-10-23T15:57:50.068Z,83.68
2022-10-23T16:02:53.421Z,83.02
2022-10-23T16:07:55.291Z,83.17
2022-10-23T16:12:57.342Z,82.85
2022-10-23T16:17:59.327Z,82.68
2022-10-23T16:23:01.392Z,83.34
2022-10-23T16:28:03.810Z,83.46
2022-10-23T16:33:05.952Z,83.75
2022-10-23T16:38:07.949Z,84.00
2022-10-23T16:43:09.987Z,83.34
2022-10-23T16:48:16.607Z,83.78
2022-10-23T16:53:18.424Z,85.61
2022-10-23T16:58:20.319Z,87.32
2022-10-23T17:03:22.203Z,86.49
2022-10-23T17:08:24.274Z,86.76
2022-10-23T17:13:26.168Z,86.17
2022-10-23T17:18:28.282Z,85.75
2022-10-23T17:23:30.582Z,85.36
2022-10-23T17:28:34.295Z,86.17
2022-10-23T17:33:36.279Z,86.95
2022-10-23T17:38:39.613Z,87.55
2022-10-23T17:43:42.516Z,87.07
2022-10-23T17:48:45.086Z,87.01
2022-10-23T17:53:49.450Z,85.78
2022-10-23T17:58:56.871Z,86.10
2022-10-23T18:04:04.581Z,87.06
2022-10-23T18:09:07.054Z,88.17
2022-10-23T18:14:10.616Z,87.25
2022-10-23T18:19:13.843Z,87.81
2022-10-23T18:24:16.818Z,88.16
2022-10-23T18:29:19.095Z,89.35
2022-10-23T18:34:24.295Z,90.08
2022-10-23T18:39:26.236Z,89.82
2022-10-23T18:44:31.369Z,89.93
2022-10-23T18:49:33.387Z,90.20
2022-10-23T18:54:35.469Z,90.93
2022-10-23T18:59:37.331Z,91.02
2022-10-23T19:04:39.225Z,90.92
2022-10-23T19:09:42.730Z,91.08
2022-10-23T19:14:45.506Z,91.53
2022-10-23T19:19:51.579Z,91.86
2022-10-23T19:24:59.978Z,92.09
2022-10-23T19:30:04.774Z,91.91
2022-10-23T19:35:07.918Z,92.02
2022-10-23T19:40:11.357Z,93.05
2022-10-23T19:45:14.716Z,92.97
2022-10-23T19:50:17.004Z,92.87
2022-10-23T19:55:19.195Z,92.95
2022-10-23T20:00:21.272Z,93.19
2022-10-23T20:05:23.582Z,92.64
2022-10-23T20:10:26.305Z,93.44
2022-10-23T20:15:28.301Z,94.13
2022-10-23T20:20:30.342Z,94.29
2022-10-23T20:25:32.233Z,93.67
2022-10-23T20:30:34.198Z,93.66
2022-10-23T20:35:41.239Z,94.17
2022-10-23T20:40:43.340Z,94.74
2022-10-23T20:45:45.372Z,95.16
2022-10-23T20:50:47.369Z,94.79
2022-10-23T20:55:49.329Z,94.54
2022-10-23T21:06:09.189Z,95.02
2022-10-23T21:11:12.752Z,94.88
2022-10-23T21:16:16.966Z,95.24
2022-10-23T21:21:20.635Z,94.96
2022-10-23T21:26:24.468Z,95.10
2022-10-23T21:31:26.531Z,95.09
2022-10-23T21:36:31.025Z,95.20
2022-10-23T21:41:34.303Z,95.51
2022-10-23T21:46:37.185Z,95.21
2022-10-23T21:51:40.170Z,94.89
2022-10-23T21:56:47.931Z,95.08
2022-10-23T22:01:50.388Z,95.05
2022-10-23T22:06:53.344Z,95.21
2022-10-23T22:11:55.815Z,94.96
2022-10-23T22:16:58.137Z,94.86
2022-10-23T22:22:00.082Z,95.33
2022-10-23T22:27:02.107Z,95.47
2022-10-23T22:32:04.240Z,95.10
2022-10-23T22:37:06.326Z,95.36
2022-10-23T22:42:09.080Z,94.77
2022-10-23T22:47:11.209Z,95.36
2022-10-23T22:52:13.201Z,95.14
2022-10-23T22:57:15.170Z,95.06
2022-10-23T23:02:17.076Z,95.13
2022-10-23T23:07:19.129Z,95.36
2022-10-23T23:12:21.295Z,94.79
2022-10-23T23:17:23.667Z,95.21
2022-10-23T23:27:28.526Z,94.58
2022-10-23T23:32:30.601Z,94.79
2022-10-23T23:37:32.570Z,94.79
2022-10-23T23:42:34.555Z,94.54
2022-10-23T23:47:36.613Z,94.63
2022-10-23T23:52:39.115Z,94.96
2022-10-23T23:57:41.271Z,95.65
